sensor_id;sensor_type;location;lat;lon;timestamp;temperature;humidity
4739;DHT22;2383;48.632;10.156;2022-11-24T00:02:05;12.40;99.90
4739;DHT22;2383;48.632;10.156;2022-11-24T00:06:12;12.50;99.90
4739;DHT22;2383;48.632;10.156;2022-11-24T00:10:15;12.50;99.90
4739;DHT22;2383;48.632;10.156;2022-11-24T00:14:17;12.50;99.90
4739;DHT22;2383;48.632;10.156;2022-11-24T00:18:18;12.40;99.90
4739;DHT22;2383;48.632;10.156;2022-11-24T00:22:20;12.30;99.90
4739;DHT22;2383;48.632;10.156;2022-11-24T00:26:30;12.10;99.90
4739;DHT22;2383;48.632;10.156;2022-11-24T00:30:34;12.10;99.90
4739;DHT22;2383;48.632;10.156;2022-11-24T00:34:36;12.30;99.90
4739;DHT22;2383;48.632;10.156;2022-11-24T00:38:38;12.40;99.90
4739;DHT22;2383;48.632;10.156;2022-11-24T00:42:40;12.50;99.90
4739;DHT22;2383;48.632;10.156;2022-11-24T00:46:42;12.60;99.90
4739;DHT22;2383;48.632;10.156;2022-11-24T00:50:44;12.30;99.90
4739;DHT22;2383;48.632;10.156;2022-11-24T00:54:45;12.40;99.90
4739;DHT22;2383;48.632;10.156;2022-11-24T00:58:47;12.40;99.90
4739;DHT22;2383;48.632;10.156;2022-11-24T01:02:49;12.40;99.90
4739;DHT22;2383;48.632;10.156;2022-11-24T01:06:51;11.70;99.90
4739;DHT22;2383;48.632;10.156;2022-11-24T01:10:52;11.30;99.90
4739;DHT22;2383;48.632;10.156;2022-11-24T01:14:54;11.40;99.90
4739;DHT22;2383;48.632;10.156;2022-11-24T01:18:56;11.20;99.90
4739;DHT22;2383;48.632;10.156;2022-11-24T01:22:58;11.70;99.90
4739;DHT22;2383;48.632;10.156;2022-11-24T01:27:00;11.90;99.90
4739;DHT22;2383;48.632;10.156;2022-11-24T01:31:04;11.90;99.90
4739;DHT22;2383;48.632;10.156;2022-11-24T01:35:07;12.00;99.90
4739;DHT22;2383;48.632;10.156;2022-11-24T01:39:09;12.00;99.90
4739;DHT22;2383;48.632;10.156;2022-11-24T01:43:20;12.00;99.90
4739;DHT22;2383;48.632;10.156;2022-11-24T01:47:34;12.00;99.90
4739;DHT22;2383;48.632;10.156;2022-11-24T01:51:42;11.60;99.90
4739;DHT22;2383;48.632;10.156;2022-11-24T01:55:45;12.00;99.90
4739;DHT22;2383;48.632;10.156;2022-11-24T01:59:47;11.90;99.90
4739;DHT22;2383;48.632;10.156;2022-11-24T02:03:51;12.10;99.90
4739;DHT22;2383;48.632;10.156;2022-11-24T02:07:56;12.00;99.90
4739;DHT22;2383;48.632;10.156;2022-11-24T02:12:00;12.00;99.90
4739;DHT22;2383;48.632;10.156;2022-11-24T02:16:05;12.00;99.90
4739;DHT22;2383;48.632;10.156;2022-11-24T02:20:10;11.90;99.90
4739;DHT22;2383;48.632;10.156;2022-11-24T02:28:28;11.80;99.90
4739;DHT22;2383;48.632;10.156;2022-11-24T02:32:32;11.80;99.90
4739;DHT22;2383;48.632;10.156;2022-11-24T02:36:34;12.00;99.90
4739;DHT22;2383;48.632;10.156;2022-11-24T02:40:36;11.70;99.90
4739;DHT22;2383;48.632;10.156;2022-11-24T02:44:41;12.00;99.90
4739;DHT22;2383;48.632;10.156;2022-11-24T02:48:45;11.70;99.90
4739;DHT22;2383;48.632;10.156;2022-11-24T02:52:46;11.50;99.90
4739;DHT22;2383;48.632;10.156;2022-11-24T02:56:48;11.60;99.90
4739;DHT22;2383;48.632;10.156;2022-11-24T03:00:50;11.50;99.90
4739;DHT22;2383;48.632;10.156;2022-11-24T03:04:54;11.70;99.90
4739;DHT22;2383;48.632;10.156;2022-11-24T03:08:56;11.80;99.90
4739;DHT22;2383;48.632;10.156;2022-11-24T03:12:58;11.90;99.90
4739;DHT22;2383;48.632;10.156;2022-11-24T03:16:59;11.90;99.90
4739;DHT22;2383;48.632;10.156;2022-11-24T03:21:01;11.90;99.90
4739;DHT22;2383;48.632;10.156;2022-11-24T03:25:03;12.30;99.90
4739;DHT22;2383;48.632;10.156;2022-11-24T03:29:05;12.00;99.90
4739;DHT22;2383;48.632;10.156;2022-11-24T03:33:07;12.10;99.90
4739;DHT22;2383;48.632;10.156;2022-11-24T03:37:08;11.70;99.90
4739;DHT22;2383;48.632;10.156;2022-11-24T03:41:10;11.60;99.90
4739;DHT22;2383;48.632;10.156;2022-11-24T03:45:12;11.60;99.90
4739;DHT22;2383;48.632;10.156;2022-11-24T03:49:35;11.20;99.90
4739;DHT22;2383;48.632;10.156;2022-11-24T03:53:37;11.50;99.90
4739;DHT22;2383;48.632;10.156;2022-11-24T03:57:38;11.40;99.90
4739;DHT22;2383;48.632;10.156;2022-11-24T04:01:40;11.20;99.90
4739;DHT22;2383;48.632;10.156;2022-11-24T04:05:42;11.20;99.90
4739;DHT22;2383;48.632;10.156;2022-11-24T04:09:44;11.10;99.90
4739;DHT22;2383;48.632;10.156;2022-11-24T04:13:46;10.90;99.90
4739;DHT22;2383;48.632;10.156;2022-11-24T04:17:49;11.00;99.90
4739;DHT22;2383;48.632;10.156;2022-11-24T04:21:51;11.00;99.90
4739;DHT22;2383;48.632;10.156;2022-11-24T04:25:52;11.20;99.90
4739;DHT22;2383;48.632;10.156;2022-11-24T04:29:54;11.30;99.90
4739;DHT22;2383;48.632;10.156;2022-11-24T04:33:56;11.30;99.90
4739;DHT22;2383;48.632;10.156;2022-11-24T04:38:01;10.80;99.90
4739;DHT22;2383;48.632;10.156;2022-11-24T04:42:03;10.80;99.90
4739;DHT22;2383;48.632;10.156;2022-11-24T04:46:05;11.00;99.90
4739;DHT22;2383;48.632;10.156;2022-11-24T04:50:07;11.10;99.90
4739;DHT22;2383;48.632;10.156;2022-11-24T04:54:11;11.10;99.90
4739;DHT22;2383;48.632;10.156;2022-11-24T04:58:13;11.10;99.90
4739;DHT22;2383;48.632;10.156;2022-11-24T05:02:15;11.10;99.90
4739;DHT22;2383;48.632;10.156;2022-11-24T05:06:16;11.10;99.90
4739;DHT22;2383;48.632;10.156;2022-11-24T05:10:18;11.50;99.90
4739;DHT22;2383;48.632;10.156;2022-11-24T05:14:35;11.60;99.90
4739;DHT22;2383;48.632;10.156;2022-11-24T05:18:37;11.00;99.90
4739;DHT22;2383;48.632;10.156;2022-11-24T05:22:39;11.00;99.90
4739;DHT22;2383;48.632;10.156;2022-11-24T05:26:41;11.60;99.90
4739;DHT22;2383;48.632;10.156;2022-11-24T05:30:43;11.40;99.90
4739;DHT22;2383;48.632;10.156;2022-11-24T05:34:45;11.80;99.90
4739;DHT22;2383;48.632;10.156;2022-11-24T05:38:47;11.70;99.90
4739;DHT22;2383;48.632;10.156;2022-11-24T05:42:49;11.90;99.90
4739;DHT22;2383;48.632;10.156;2022-11-24T05:46:51;11.90;99.90
4739;DHT22;2383;48.632;10.156;2022-11-24T05:50:57;11.30;99.90
4739;DHT22;2383;48.632;10.156;2022-11-24T05:54:59;11.00;99.90
4739;DHT22;2383;48.632;10.156;2022-11-24T05:59:01;10.80;99.90
4739;DHT22;2383;48.632;10.156;2022-11-24T06:03:10;10.80;99.90
4739;DHT22;2383;48.632;10.156;2022-11-24T06:07:13;11.00;99.90
4739;DHT22;2383;48.632;10.156;2022-11-24T06:11:15;11.40;99.90
4739;DHT22;2383;48.632;10.156;2022-11-24T06:15:20;11.60;99.90
4739;DHT22;2383;48.632;10.156;2022-11-24T06:19:22;11.70;99.90
4739;DHT22;2383;48.632;10.156;2022-11-24T06:23:29;11.40;99.90
4739;DHT22;2383;48.632;10.156;2022-11-24T06:27:31;11.60;99.90
4739;DHT22;2383;48.632;10.156;2022-11-24T06:31:33;11.30;99.90
4739;DHT22;2383;48.632;10.156;2022-11-24T06:35:35;11.60;99.90
4739;DHT22;2383;48.632;10.156;2022-11-24T06:39:36;11.80;99.90
4739;DHT22;2383;48.632;10.156;2022-11-24T06:43:38;11.50;99.70
4739;DHT22;2383;48.632;10.156;2022-11-24T06:47:40;11.40;99.90
4739;DHT22;2383;48.632;10.156;2022-11-24T06:51:42;11.40;99.90
4739;DHT22;2383;48.632;10.156;2022-11-24T06:55:45;11.80;99.90
4739;DHT22;2383;48.632;10.156;2022-11-24T06:59:47;11.70;99.90
4739;DHT22;2383;48.632;10.156;2022-11-24T07:03:50;11.50;99.90
4739;DHT22;2383;48.632;10.156;2022-11-24T07:07:52;11.40;99.90
4739;DHT22;2383;48.632;10.156;2022-11-24T07:11:54;11.60;99.90
4739;DHT22;2383;48.632;10.156;2022-11-24T07:15:57;11.40;99.90
4739;DHT22;2383;48.632;10.156;2022-11-24T07:19:59;11.60;99.90
4739;DHT22;2383;48.632;10.156;2022-11-24T07:24:00;11.60;99.90
4739;DHT22;2383;48.632;10.156;2022-11-24T07:28:02;11.70;99.90
4739;DHT22;2383;48.632;10.156;2022-11-24T07:32:05;11.80;99.90
4739;DHT22;2383;48.632;10.156;2022-11-24T07:36:08;11.80;99.90
4739;DHT22;2383;48.632;10.156;2022-11-24T07:40:10;11.40;99.90
4739;DHT22;2383;48.632;10.156;2022-11-24T07:44:12;11.30;99.90
4739;DHT22;2383;48.632;10.156;2022-11-24T07:48:13;11.40;99.90
4739;DHT22;2383;48.632;10.156;2022-11-24T07:52:15;11.70;99.90
4739;DHT22;2383;48.632;10.156;2022-11-24T07:56:17;11.80;99.90
4739;DHT22;2383;48.632;10.156;2022-11-24T08:00:19;12.00;99.90
4739;DHT22;2383;48.632;10.156;2022-11-24T08:04:22;11.70;99.90
4739;DHT22;2383;48.632;10.156;2022-11-24T08:08:24;11.70;99.90
4739;DHT22;2383;48.632;10.156;2022-11-24T08:12:26;12.20;99.90
4739;DHT22;2383;48.632;10.156;2022-11-24T08:16:28;12.00;99.90
4739;DHT22;2383;48.632;10.156;2022-11-24T08:20:30;12.50;99.90
4739;DHT22;2383;48.632;10.156;2022-11-24T08:24:31;12.50;99.90
4739;DHT22;2383;48.632;10.156;2022-11-24T08:28:34;11.90;99.90
4739;DHT22;2383;48.632;10.156;2022-11-24T08:32:36;12.40;99.90
4739;DHT22;2383;48.632;10.156;2022-11-24T08:36:37;12.30;99.90
4739;DHT22;2383;48.632;10.156;2022-11-24T08:40:39;12.20;99.90
4739;DHT22;2383;48.632;10.156;2022-11-24T08:44:41;12.60;99.90
4739;DHT22;2383;48.632;10.156;2022-11-24T08:48:52;12.40;99.90
4739;DHT22;2383;48.632;10.156;2022-11-24T08:52:54;12.50;99.90
4739;DHT22;2383;48.632;10.156;2022-11-24T08:56:56;12.40;99.90
4739;DHT22;2383;48.632;10.156;2022-11-24T09:01:10;12.50;99.90
4739;DHT22;2383;48.632;10.156;2022-11-24T09:05:12;12.70;99.90
4739;DHT22;2383;48.632;10.156;2022-11-24T09:09:34;12.80;99.90
4739;DHT22;2383;48.632;10.156;2022-11-24T09:13:36;12.90;99.90
4739;DHT22;2383;48.632;10.156;2022-11-24T09:17:38;13.00;99.90
4739;DHT22;2383;48.632;10.156;2022-11-24T09:21:40;13.10;99.90
4739;DHT22;2383;48.632;10.156;2022-11-24T09:25:42;12.80;99.90
4739;DHT22;2383;48.632;10.156;2022-11-24T09:29:44;13.20;99.90
4739;DHT22;2383;48.632;10.156;2022-11-24T09:33:46;12.90;99.90
4739;DHT22;2383;48.632;10.156;2022-11-24T09:37:47;13.40;99.90
4739;DHT22;2383;48.632;10.156;2022-11-24T09:46:10;13.30;99.90
4739;DHT22;2383;48.632;10.156;2022-11-24T09:50:21;13.40;99.90
4739;DHT22;2383;48.632;10.156;2022-11-24T09:54:27;13.40;99.90
4739;DHT22;2383;48.632;10.156;2022-11-24T09:58:36;13.50;99.90
4739;DHT22;2383;48.632;10.156;2022-11-24T10:02:41;13.30;99.90
4739;DHT22;2383;48.632;10.156;2022-11-24T10:16:07;12.90;99.90
4739;DHT22;2383;48.632;10.156;2022-11-24T10:20:36;12.70;99.90
4739;DHT22;2383;48.632;10.156;2022-11-24T10:29:40;13.10;99.90
4739;DHT22;2383;48.632;10.156;2022-11-24T10:33:42;13.10;99.90
4739;DHT22;2383;48.632;10.156;2022-11-24T10:41:57;13.50;99.90
4739;DHT22;2383;48.632;10.156;2022-11-24T10:50:31;12.90;99.90
4739;DHT22;2383;48.632;10.156;2022-11-24T10:54:33;13.10;99.90
4739;DHT22;2383;48.632;10.156;2022-11-24T10:58:37;13.50;99.90
4739;DHT22;2383;48.632;10.156;2022-11-24T11:02:40;13.30;99.90
4739;DHT22;2383;48.632;10.156;2022-11-24T11:06:42;12.90;99.90
4739;DHT22;2383;48.632;10.156;2022-11-24T11:10:46;13.00;99.90
4739;DHT22;2383;48.632;10.156;2022-11-24T11:14:48;13.00;99.90
4739;DHT22;2383;48.632;10.156;2022-11-24T11:18:50;12.60;99.90
4739;DHT22;2383;48.632;10.156;2022-11-24T11:22:53;12.40;99.90
4739;DHT22;2383;48.632;10.156;2022-11-24T11:27:02;13.00;99.90
4739;DHT22;2383;48.632;10.156;2022-11-24T11:31:05;12.80;99.90
4739;DHT22;2383;48.632;10.156;2022-11-24T11:35:25;12.90;99.90
4739;DHT22;2383;48.632;10.156;2022-11-24T11:39:35;13.30;99.90
4739;DHT22;2383;48.632;10.156;2022-11-24T11:43:38;13.50;99.90
4739;DHT22;2383;48.632;10.156;2022-11-24T11:47:52;13.50;99.90
4739;DHT22;2383;48.632;10.156;2022-11-24T12:00:22;13.40;99.90
4739;DHT22;2383;48.632;10.156;2022-11-24T12:09:08;13.20;99.90
4739;DHT22;2383;48.632;10.156;2022-11-24T12:18:02;13.40;99.90
4739;DHT22;2383;48.632;10.156;2022-11-24T12:22:19;13.60;99.90
4739;DHT22;2383;48.632;10.156;2022-11-24T12:31:04;13.50;99.90
4739;DHT22;2383;48.632;10.156;2022-11-24T12:43:49;13.40;99.90
4739;DHT22;2383;48.632;10.156;2022-11-24T12:52:32;13.30;99.90
4739;DHT22;2383;48.632;10.156;2022-11-24T12:56:57;13.00;99.90
4739;DHT22;2383;48.632;10.156;2022-11-24T13:01:11;12.70;99.90
4739;DHT22;2383;48.632;10.156;2022-11-24T13:09:31;12.70;99.90
4739;DHT22;2383;48.632;10.156;2022-11-24T13:13:56;13.40;99.90
4739;DHT22;2383;48.632;10.156;2022-11-24T13:17:59;13.60;99.90
4739;DHT22;2383;48.632;10.156;2022-11-24T13:22:23;13.40;99.90
4739;DHT22;2383;48.632;10.156;2022-11-24T13:30:52;13.00;99.90
4739;DHT22;2383;48.632;10.156;2022-11-24T13:35:02;13.10;99.90
4739;DHT22;2383;48.632;10.156;2022-11-24T13:39:18;13.10;99.90
4739;DHT22;2383;48.632;10.156;2022-11-24T13:43:21;13.20;99.90
4739;DHT22;2383;48.632;10.156;2022-11-24T13:47:28;13.80;99.30
4739;DHT22;2383;48.632;10.156;2022-11-24T13:51:30;13.50;99.90
4739;DHT22;2383;48.632;10.156;2022-11-24T13:55:34;13.40;99.70
4739;DHT22;2383;48.632;10.156;2022-11-24T13:59:39;13.30;99.90
4739;DHT22;2383;48.632;10.156;2022-11-24T14:03:58;13.60;99.30
4739;DHT22;2383;48.632;10.156;2022-11-24T14:08:29;13.40;99.90
4739;DHT22;2383;48.632;10.156;2022-11-24T14:12:31;13.20;99.90
4739;DHT22;2383;48.632;10.156;2022-11-24T14:16:34;13.40;99.90
4739;DHT22;2383;48.632;10.156;2022-11-24T14:20:36;13.50;99.90
4739;DHT22;2383;48.632;10.156;2022-11-24T14:24:38;13.20;99.90
4739;DHT22;2383;48.632;10.156;2022-11-24T14:28:43;13.40;99.90
4739;DHT22;2383;48.632;10.156;2022-11-24T14:32:56;13.60;99.90
4739;DHT22;2383;48.632;10.156;2022-11-24T14:36:59;13.30;99.90
4739;DHT22;2383;48.632;10.156;2022-11-24T14:41:15;13.30;99.90
4739;DHT22;2383;48.632;10.156;2022-11-24T14:45:21;13.50;99.90
4739;DHT22;2383;48.632;10.156;2022-11-24T14:49:23;13.60;99.90
4739;DHT22;2383;48.632;10.156;2022-11-24T14:53:25;13.60;99.90
4739;DHT22;2383;48.632;10.156;2022-11-24T14:57:34;13.60;99.90
4739;DHT22;2383;48.632;10.156;2022-11-24T15:01:36;13.60;99.90
4739;DHT22;2383;48.632;10.156;2022-11-24T15:05:54;13.80;99.90
4739;DHT22;2383;48.632;10.156;2022-11-24T15:10:01;13.60;99.90
4739;DHT22;2383;48.632;10.156;2022-11-24T15:14:17;13.60;99.90
4739;DHT22;2383;48.632;10.156;2022-11-24T15:22:45;13.70;99.90
4739;DHT22;2383;48.632;10.156;2022-11-24T15:26:47;13.40;99.90
4739;DHT22;2383;48.632;10.156;2022-11-24T15:30:49;13.30;99.90
4739;DHT22;2383;48.632;10.156;2022-11-24T15:34:51;13.10;99.90
4739;DHT22;2383;48.632;10.156;2022-11-24T15:38:52;13.30;99.90
4739;DHT22;2383;48.632;10.156;2022-11-24T15:42:55;12.70;99.90
4739;DHT22;2383;48.632;10.156;2022-11-24T15:47:05;12.90;99.90
4739;DHT22;2383;48.632;10.156;2022-11-24T15:51:12;13.00;99.90
4739;DHT22;2383;48.632;10.156;2022-11-24T15:55:18;12.70;99.90
4739;DHT22;2383;48.632;10.156;2022-11-24T15:59:20;12.50;99.90
4739;DHT22;2383;48.632;10.156;2022-11-24T16:03:21;12.50;99.90
4739;DHT22;2383;48.632;10.156;2022-11-24T16:07:43;12.50;99.90
4739;DHT22;2383;48.632;10.156;2022-11-24T16:11:45;12.30;99.90
4739;DHT22;2383;48.632;10.156;2022-11-24T16:15:47;12.30;99.90
4739;DHT22;2383;48.632;10.156;2022-11-24T16:19:49;12.20;99.90
4739;DHT22;2383;48.632;10.156;2022-11-24T16:24:01;12.30;99.90
4739;DHT22;2383;48.632;10.156;2022-11-24T16:28:03;12.40;99.90
4739;DHT22;2383;48.632;10.156;2022-11-24T16:32:05;12.20;99.90
4739;DHT22;2383;48.632;10.156;2022-11-24T16:36:07;12.10;99.90
4739;DHT22;2383;48.632;10.156;2022-11-24T16:40:09;12.10;99.90
4739;DHT22;2383;48.632;10.156;2022-11-24T16:44:11;12.00;99.90
4739;DHT22;2383;48.632;10.156;2022-11-24T16:48:13;12.10;99.70
4739;DHT22;2383;48.632;10.156;2022-11-24T16:52:15;12.00;99.60
4739;DHT22;2383;48.632;10.156;2022-11-24T16:56:17;12.20;99.90
4739;DHT22;2383;48.632;10.156;2022-11-24T17:00:19;12.00;99.80
4739;DHT22;2383;48.632;10.156;2022-11-24T17:04:21;11.90;99.50
4739;DHT22;2383;48.632;10.156;2022-11-24T17:08:23;11.70;99.40
4739;DHT22;2383;48.632;10.156;2022-11-24T17:12:29;11.60;99.70
4739;DHT22;2383;48.632;10.156;2022-11-24T17:16:31;11.50;99.60
4739;DHT22;2383;48.632;10.156;2022-11-24T17:20:33;11.40;99.60
4739;DHT22;2383;48.632;10.156;2022-11-24T17:24:36;11.40;99.20
4739;DHT22;2383;48.632;10.156;2022-11-24T17:28:38;11.20;99.20
4739;DHT22;2383;48.632;10.156;2022-11-24T17:32:50;11.00;99.40
4739;DHT22;2383;48.632;10.156;2022-11-24T17:36:57;11.10;98.70
4739;DHT22;2383;48.632;10.156;2022-11-24T17:41:02;10.80;99.00
4739;DHT22;2383;48.632;10.156;2022-11-24T17:45:04;10.90;99.30
4739;DHT22;2383;48.632;10.156;2022-11-24T17:49:05;10.60;99.50
4739;DHT22;2383;48.632;10.156;2022-11-24T17:53:08;10.70;99.40
4739;DHT22;2383;48.632;10.156;2022-11-24T17:57:10;10.70;99.40
4739;DHT22;2383;48.632;10.156;2022-11-24T18:01:12;10.60;99.30
4739;DHT22;2383;48.632;10.156;2022-11-24T18:05:14;10.60;99.10
4739;DHT22;2383;48.632;10.156;2022-11-24T18:09:16;10.60;98.70
4739;DHT22;2383;48.632;10.156;2022-11-24T18:13:18;10.70;98.90
4739;DHT22;2383;48.632;10.156;2022-11-24T18:17:39;10.40;98.70
4739;DHT22;2383;48.632;10.156;2022-11-24T18:21:41;10.60;98.80
4739;DHT22;2383;48.632;10.156;2022-11-24T18:25:53;10.40;98.50
4739;DHT22;2383;48.632;10.156;2022-11-24T18:29:55;10.20;98.80
4739;DHT22;2383;48.632;10.156;2022-11-24T18:33:58;10.10;98.60
4739;DHT22;2383;48.632;10.156;2022-11-24T18:38:00;10.20;98.50
4739;DHT22;2383;48.632;10.156;2022-11-24T18:42:01;10.00;98.80
4739;DHT22;2383;48.632;10.156;2022-11-24T18:46:05;9.70;99.30
4739;DHT22;2383;48.632;10.156;2022-11-24T18:50:08;9.80;99.10
4739;DHT22;2383;48.632;10.156;2022-11-24T18:54:10;9.80;98.90
4739;DHT22;2383;48.632;10.156;2022-11-24T18:58:12;10.10;98.40
4739;DHT22;2383;48.632;10.156;2022-11-24T19:02:14;9.60;98.90
4739;DHT22;2383;48.632;10.156;2022-11-24T19:06:21;9.50;98.80
4739;DHT22;2383;48.632;10.156;2022-11-24T19:10:24;9.50;99.00
4739;DHT22;2383;48.632;10.156;2022-11-24T19:14:27;9.90;99.00
4739;DHT22;2383;48.632;10.156;2022-11-24T19:18:28;9.60;98.70
4739;DHT22;2383;48.632;10.156;2022-11-24T19:22:30;9.40;98.50
4739;DHT22;2383;48.632;10.156;2022-11-24T19:26:33;9.60;98.60
4739;DHT22;2383;48.632;10.156;2022-11-24T19:30:38;9.50;98.40
4739;DHT22;2383;48.632;10.156;2022-11-24T19:34:40;9.30;98.50
4739;DHT22;2383;48.632;10.156;2022-11-24T19:38:47;9.20;98.60
4739;DHT22;2383;48.632;10.156;2022-11-24T19:42:50;9.20;98.90
4739;DHT22;2383;48.632;10.156;2022-11-24T19:51:53;9.20;98.40
4739;DHT22;2383;48.632;10.156;2022-11-24T19:56:09;9.10;98.50
4739;DHT22;2383;48.632;10.156;2022-11-24T20:00:12;9.20;98.40
4739;DHT22;2383;48.632;10.156;2022-11-24T20:04:15;9.20;98.30
4739;DHT22;2383;48.632;10.156;2022-11-24T20:08:17;9.20;98.10
4739;DHT22;2383;48.632;10.156;2022-11-24T20:12:18;9.00;98.40
4739;DHT22;2383;48.632;10.156;2022-11-24T20:16:23;9.10;98.10
4739;DHT22;2383;48.632;10.156;2022-11-24T20:20:27;9.00;98.10
4739;DHT22;2383;48.632;10.156;2022-11-24T20:24:29;9.00;98.00
4739;DHT22;2383;48.632;10.156;2022-11-24T20:28:31;8.90;98.10
4739;DHT22;2383;48.632;10.156;2022-11-24T20:32:33;8.80;98.10
4739;DHT22;2383;48.632;10.156;2022-11-24T20:36:36;8.90;98.00
4739;DHT22;2383;48.632;10.156;2022-11-24T20:40:38;9.10;98.10
4739;DHT22;2383;48.632;10.156;2022-11-24T20:44:40;8.50;98.10
4739;DHT22;2383;48.632;10.156;2022-11-24T20:48:42;8.70;98.00
4739;DHT22;2383;48.632;10.156;2022-11-24T20:52:44;8.90;98.10
4739;DHT22;2383;48.632;10.156;2022-11-24T20:56:46;8.70;98.10
4739;DHT22;2383;48.632;10.156;2022-11-24T21:00:48;8.70;97.90
4739;DHT22;2383;48.632;10.156;2022-11-24T21:04:59;8.60;98.00
4739;DHT22;2383;48.632;10.156;2022-11-24T21:09:01;8.60;98.00
4739;DHT22;2383;48.632;10.156;2022-11-24T21:13:04;8.70;98.00
4739;DHT22;2383;48.632;10.156;2022-11-24T21:17:06;8.70;98.00
4739;DHT22;2383;48.632;10.156;2022-11-24T21:21:08;8.80;97.70
4739;DHT22;2383;48.632;10.156;2022-11-24T21:25:10;9.20;97.90
4739;DHT22;2383;48.632;10.156;2022-11-24T21:29:14;9.10;97.70
4739;DHT22;2383;48.632;10.156;2022-11-24T21:33:17;8.40;98.50
4739;DHT22;2383;48.632;10.156;2022-11-24T21:37:20;8.20;98.80
4739;DHT22;2383;48.632;10.156;2022-11-24T21:41:24;8.60;99.10
4739;DHT22;2383;48.632;10.156;2022-11-24T21:45:26;8.30;99.00
4739;DHT22;2383;48.632;10.156;2022-11-24T21:49:29;8.80;99.10
4739;DHT22;2383;48.632;10.156;2022-11-24T21:53:34;8.70;98.60
4739;DHT22;2383;48.632;10.156;2022-11-24T21:57:38;8.80;98.40
4739;DHT22;2383;48.632;10.156;2022-11-24T22:01:40;7.90;98.90
4739;DHT22;2383;48.632;10.156;2022-11-24T22:05:43;8.00;99.30
4739;DHT22;2383;48.632;10.156;2022-11-24T22:09:52;8.00;99.10
4739;DHT22;2383;48.632;10.156;2022-11-24T22:13:54;7.80;98.80
4739;DHT22;2383;48.632;10.156;2022-11-24T22:17:57;8.10;98.20
4739;DHT22;2383;48.632;10.156;2022-11-24T22:21:59;7.50;98.50
4739;DHT22;2383;48.632;10.156;2022-11-24T22:26:05;7.80;98.50
4739;DHT22;2383;48.632;10.156;2022-11-24T22:30:08;7.80;98.30
4739;DHT22;2383;48.632;10.156;2022-11-24T22:34:11;8.00;98.30
4739;DHT22;2383;48.632;10.156;2022-11-24T22:38:12;8.10;98.10
4739;DHT22;2383;48.632;10.156;2022-11-24T22:42:14;8.10;98.10
4739;DHT22;2383;48.632;10.156;2022-11-24T22:46:18;8.20;98.50
4739;DHT22;2383;48.632;10.156;2022-11-24T22:50:20;7.70;98.40
4739;DHT22;2383;48.632;10.156;2022-11-24T22:54:23;7.70;98.30
4739;DHT22;2383;48.632;10.156;2022-11-24T22:58:25;7.80;98.40
4739;DHT22;2383;48.632;10.156;2022-11-24T23:07:25;7.40;98.40
4739;DHT22;2383;48.632;10.156;2022-11-24T23:11:33;7.50;98.50
4739;DHT22;2383;48.632;10.156;2022-11-24T23:15:38;7.80;98.10
4739;DHT22;2383;48.632;10.156;2022-11-24T23:19:40;7.80;97.80
4739;DHT22;2383;48.632;10.156;2022-11-24T23:23:42;7.80;98.00
4739;DHT22;2383;48.632;10.156;2022-11-24T23:27:44;7.90;97.70
4739;DHT22;2383;48.632;10.156;2022-11-24T23:31:46;8.10;97.90
4739;DHT22;2383;48.632;10.156;2022-11-24T23:35:48;7.90;98.00
4739;DHT22;2383;48.632;10.156;2022-11-24T23:39:49;8.30;98.00
4739;DHT22;2383;48.632;10.156;2022-11-24T23:43:52;8.10;98.10
4739;DHT22;2383;48.632;10.156;2022-11-24T23:47:53;8.10;97.90
4739;DHT22;2383;48.632;10.156;2022-11-24T23:51:55;8.50;97.90
4739;DHT22;2383;48.632;10.156;2022-11-24T23:55:57;7.90;97.90
4739;DHT22;2383;48.632;10.156;2022-11-24T23:59:59;7.90;98.00
